sensor_id;sensor_type;location;lat;lon;timestamp;P1;durP1;ratioP1;P2;durP2;ratioP2
11064;SDS011;5585;52.530;7.320;2023-03-15T00:00:18;4.67;;;1.23;;
11064;SDS011;5585;52.530;7.320;2023-03-15T00:02:45;6.60;;;1.47;;
11064;SDS011;5585;52.530;7.320;2023-03-15T00:05:12;3.50;;;1.30;;
11064;SDS011;5585;52.530;7.320;2023-03-15T00:07:38;4.93;;;1.50;;
11064;SDS011;5585;52.530;7.320;2023-03-15T00:10:05;4.93;;;1.50;;
11064;SDS011;5585;52.530;7.320;2023-03-15T00:12:32;3.03;;;1.47;;
11064;SDS011;5585;52.530;7.320;2023-03-15T00:14:59;4.80;;;1.83;;
11064;SDS011;5585;52.530;7.320;2023-03-15T00:17:27;3.97;;;1.63;;
11064;SDS011;5585;52.530;7.320;2023-03-15T00:19:53;5.63;;;1.60;;
11064;SDS011;5585;52.530;7.320;2023-03-15T00:22:20;6.53;;;2.20;;
11064;SDS011;5585;52.530;7.320;2023-03-15T00:24:47;5.50;;;1.70;;
11064;SDS011;5585;52.530;7.320;2023-03-15T00:27:13;3.77;;;1.70;;
11064;SDS011;5585;52.530;7.320;2023-03-15T00:29:40;6.00;;;1.80;;
11064;SDS011;5585;52.530;7.320;2023-03-15T00:32:06;4.67;;;1.70;;
11064;SDS011;5585;52.530;7.320;2023-03-15T00:34:34;3.47;;;1.80;;
11064;SDS011;5585;52.530;7.320;2023-03-15T00:37:01;5.40;;;1.80;;
11064;SDS011;5585;52.530;7.320;2023-03-15T00:39:28;3.70;;;1.80;;
11064;SDS011;5585;52.530;7.320;2023-03-15T00:41:54;6.00;;;1.50;;
11064;SDS011;5585;52.530;7.320;2023-03-15T00:44:21;5.27;;;2.10;;
11064;SDS011;5585;52.530;7.320;2023-03-15T00:46:47;3.67;;;1.73;;
11064;SDS011;5585;52.530;7.320;2023-03-15T00:49:14;4.87;;;1.50;;
11064;SDS011;5585;52.530;7.320;2023-03-15T00:51:42;6.87;;;2.20;;
11064;SDS011;5585;52.530;7.320;2023-03-15T00:54:08;3.67;;;1.70;;
11064;SDS011;5585;52.530;7.320;2023-03-15T00:56:37;4.03;;;1.53;;
11064;SDS011;5585;52.530;7.320;2023-03-15T00:59:04;5.30;;;1.70;;
11064;SDS011;5585;52.530;7.320;2023-03-15T01:01:31;6.03;;;2.10;;
11064;SDS011;5585;52.530;7.320;2023-03-15T01:03:57;5.03;;;2.10;;
11064;SDS011;5585;52.530;7.320;2023-03-15T01:06:24;3.70;;;2.30;;
11064;SDS011;5585;52.530;7.320;2023-03-15T01:08:53;4.87;;;1.77;;
11064;SDS011;5585;52.530;7.320;2023-03-15T01:11:21;3.57;;;2.10;;
11064;SDS011;5585;52.530;7.320;2023-03-15T01:13:48;3.63;;;2.03;;
11064;SDS011;5585;52.530;7.320;2023-03-15T01:16:15;4.00;;;1.87;;
11064;SDS011;5585;52.530;7.320;2023-03-15T01:18:41;5.77;;;2.10;;
11064;SDS011;5585;52.530;7.320;2023-03-15T01:21:09;6.17;;;1.90;;
11064;SDS011;5585;52.530;7.320;2023-03-15T01:23:38;4.53;;;2.00;;
11064;SDS011;5585;52.530;7.320;2023-03-15T01:26:08;3.73;;;2.00;;
11064;SDS011;5585;52.530;7.320;2023-03-15T01:28:35;2.10;;;1.67;;
11064;SDS011;5585;52.530;7.320;2023-03-15T01:31:02;4.43;;;1.70;;
11064;SDS011;5585;52.530;7.320;2023-03-15T01:33:28;8.40;;;2.20;;
11064;SDS011;5585;52.530;7.320;2023-03-15T01:35:58;3.13;;;1.90;;
11064;SDS011;5585;52.530;7.320;2023-03-15T01:38:25;4.13;;;1.60;;
11064;SDS011;5585;52.530;7.320;2023-03-15T01:40:52;3.23;;;1.57;;
11064;SDS011;5585;52.530;7.320;2023-03-15T01:43:20;3.77;;;1.93;;
11064;SDS011;5585;52.530;7.320;2023-03-15T01:45:52;3.73;;;1.73;;
11064;SDS011;5585;52.530;7.320;2023-03-15T01:48:20;2.17;;;1.50;;
11064;SDS011;5585;52.530;7.320;2023-03-15T01:50:48;2.03;;;1.30;;
11064;SDS011;5585;52.530;7.320;2023-03-15T01:53:14;2.30;;;1.60;;
11064;SDS011;5585;52.530;7.320;2023-03-15T01:55:41;2.63;;;1.33;;
11064;SDS011;5585;52.530;7.320;2023-03-15T01:58:08;2.13;;;1.50;;
11064;SDS011;5585;52.530;7.320;2023-03-15T02:00:36;3.63;;;1.70;;
11064;SDS011;5585;52.530;7.320;2023-03-15T02:03:04;3.33;;;1.50;;
11064;SDS011;5585;52.530;7.320;2023-03-15T02:05:34;2.53;;;1.27;;
11064;SDS011;5585;52.530;7.320;2023-03-15T02:08:03;2.80;;;1.50;;
11064;SDS011;5585;52.530;7.320;2023-03-15T02:10:31;2.10;;;1.60;;
11064;SDS011;5585;52.530;7.320;2023-03-15T02:13:00;2.60;;;1.57;;
11064;SDS011;5585;52.530;7.320;2023-03-15T02:15:27;4.00;;;1.60;;
11064;SDS011;5585;52.530;7.320;2023-03-15T02:17:55;2.50;;;1.40;;
11064;SDS011;5585;52.530;7.320;2023-03-15T02:20:27;3.17;;;1.50;;
11064;SDS011;5585;52.530;7.320;2023-03-15T02:22:56;2.07;;;1.70;;
11064;SDS011;5585;52.530;7.320;2023-03-15T02:25:25;3.00;;;1.50;;
11064;SDS011;5585;52.530;7.320;2023-03-15T02:27:57;5.50;;;1.93;;
11064;SDS011;5585;52.530;7.320;2023-03-15T02:30:24;3.63;;;1.60;;
11064;SDS011;5585;52.530;7.320;2023-03-15T02:32:51;3.00;;;1.70;;
11064;SDS011;5585;52.530;7.320;2023-03-15T02:35:23;2.73;;;1.83;;
11064;SDS011;5585;52.530;7.320;2023-03-15T02:37:50;2.83;;;1.53;;
11064;SDS011;5585;52.530;7.320;2023-03-15T02:40:17;3.27;;;1.60;;
11064;SDS011;5585;52.530;7.320;2023-03-15T02:42:44;4.07;;;1.50;;
11064;SDS011;5585;52.530;7.320;2023-03-15T02:45:13;2.83;;;1.60;;
11064;SDS011;5585;52.530;7.320;2023-03-15T02:47:39;4.57;;;1.83;;
11064;SDS011;5585;52.530;7.320;2023-03-15T02:50:06;3.23;;;1.37;;
11064;SDS011;5585;52.530;7.320;2023-03-15T02:52:33;2.87;;;1.70;;
11064;SDS011;5585;52.530;7.320;2023-03-15T02:54:59;2.83;;;1.50;;
11064;SDS011;5585;52.530;7.320;2023-03-15T02:57:27;2.73;;;1.73;;
11064;SDS011;5585;52.530;7.320;2023-03-15T02:59:54;3.70;;;1.80;;
11064;SDS011;5585;52.530;7.320;2023-03-15T03:02:22;3.33;;;1.70;;
11064;SDS011;5585;52.530;7.320;2023-03-15T03:04:49;3.17;;;1.60;;
11064;SDS011;5585;52.530;7.320;2023-03-15T03:07:17;3.43;;;1.60;;
11064;SDS011;5585;52.530;7.320;2023-03-15T03:09:43;4.40;;;1.67;;
11064;SDS011;5585;52.530;7.320;2023-03-15T03:12:10;4.90;;;1.93;;
11064;SDS011;5585;52.530;7.320;2023-03-15T03:14:36;4.93;;;2.40;;
11064;SDS011;5585;52.530;7.320;2023-03-15T03:17:03;3.30;;;1.83;;
11064;SDS011;5585;52.530;7.320;2023-03-15T03:19:31;2.50;;;1.30;;
11064;SDS011;5585;52.530;7.320;2023-03-15T03:21:57;2.43;;;1.40;;
11064;SDS011;5585;52.530;7.320;2023-03-15T03:24:24;2.20;;;1.47;;
11064;SDS011;5585;52.530;7.320;2023-03-15T03:26:50;4.03;;;1.63;;
11064;SDS011;5585;52.530;7.320;2023-03-15T03:29:21;3.33;;;1.77;;
11064;SDS011;5585;52.530;7.320;2023-03-15T03:31:48;3.37;;;1.50;;
11064;SDS011;5585;52.530;7.320;2023-03-15T03:34:14;2.67;;;1.30;;
11064;SDS011;5585;52.530;7.320;2023-03-15T03:36:42;4.67;;;1.70;;
11064;SDS011;5585;52.530;7.320;2023-03-15T03:39:09;2.57;;;1.50;;
11064;SDS011;5585;52.530;7.320;2023-03-15T03:41:35;3.27;;;1.80;;
11064;SDS011;5585;52.530;7.320;2023-03-15T03:44:02;2.07;;;1.60;;
11064;SDS011;5585;52.530;7.320;2023-03-15T03:46:29;3.67;;;1.50;;
11064;SDS011;5585;52.530;7.320;2023-03-15T03:48:55;4.03;;;1.60;;
11064;SDS011;5585;52.530;7.320;2023-03-15T03:51:22;2.43;;;1.40;;
11064;SDS011;5585;52.530;7.320;2023-03-15T03:53:49;3.47;;;1.40;;
11064;SDS011;5585;52.530;7.320;2023-03-15T03:56:16;4.03;;;1.53;;
11064;SDS011;5585;52.530;7.320;2023-03-15T03:58:42;4.40;;;1.77;;
11064;SDS011;5585;52.530;7.320;2023-03-15T04:01:09;3.93;;;1.40;;
11064;SDS011;5585;52.530;7.320;2023-03-15T04:03:35;3.63;;;2.03;;
11064;SDS011;5585;52.530;7.320;2023-03-15T04:06:02;2.63;;;1.60;;
11064;SDS011;5585;52.530;7.320;2023-03-15T04:08:29;2.70;;;1.40;;
11064;SDS011;5585;52.530;7.320;2023-03-15T04:10:57;3.33;;;1.80;;
11064;SDS011;5585;52.530;7.320;2023-03-15T04:13:24;4.37;;;1.77;;
11064;SDS011;5585;52.530;7.320;2023-03-15T04:15:51;4.23;;;1.70;;
11064;SDS011;5585;52.530;7.320;2023-03-15T04:18:21;2.60;;;1.40;;
11064;SDS011;5585;52.530;7.320;2023-03-15T04:20:48;2.80;;;2.00;;
11064;SDS011;5585;52.530;7.320;2023-03-15T04:23:19;2.87;;;1.70;;
11064;SDS011;5585;52.530;7.320;2023-03-15T04:25:46;3.73;;;1.90;;
11064;SDS011;5585;52.530;7.320;2023-03-15T04:28:14;4.93;;;2.47;;
11064;SDS011;5585;52.530;7.320;2023-03-15T04:30:41;3.37;;;2.20;;
11064;SDS011;5585;52.530;7.320;2023-03-15T04:33:08;2.97;;;1.70;;
11064;SDS011;5585;52.530;7.320;2023-03-15T04:35:35;4.87;;;1.50;;
11064;SDS011;5585;52.530;7.320;2023-03-15T04:38:03;2.73;;;1.67;;
11064;SDS011;5585;52.530;7.320;2023-03-15T04:40:30;5.03;;;1.80;;
11064;SDS011;5585;52.530;7.320;2023-03-15T04:42:59;5.67;;;1.60;;
11064;SDS011;5585;52.530;7.320;2023-03-15T04:45:28;3.90;;;1.60;;
11064;SDS011;5585;52.530;7.320;2023-03-15T04:47:55;3.07;;;1.60;;
11064;SDS011;5585;52.530;7.320;2023-03-15T04:50:22;3.07;;;1.70;;
11064;SDS011;5585;52.530;7.320;2023-03-15T04:52:49;4.40;;;1.97;;
11064;SDS011;5585;52.530;7.320;2023-03-15T04:55:16;3.53;;;1.50;;
11064;SDS011;5585;52.530;7.320;2023-03-15T04:57:43;2.77;;;1.50;;
11064;SDS011;5585;52.530;7.320;2023-03-15T05:00:10;2.37;;;1.50;;
11064;SDS011;5585;52.530;7.320;2023-03-15T05:02:38;4.73;;;1.70;;
11064;SDS011;5585;52.530;7.320;2023-03-15T05:05:06;3.57;;;1.60;;
11064;SDS011;5585;52.530;7.320;2023-03-15T05:07:33;4.23;;;1.80;;
11064;SDS011;5585;52.530;7.320;2023-03-15T05:09:59;5.30;;;1.80;;
11064;SDS011;5585;52.530;7.320;2023-03-15T05:12:26;2.20;;;1.63;;
11064;SDS011;5585;52.530;7.320;2023-03-15T05:14:52;3.30;;;2.03;;
11064;SDS011;5585;52.530;7.320;2023-03-15T05:17:19;2.97;;;1.80;;
11064;SDS011;5585;52.530;7.320;2023-03-15T05:19:47;3.33;;;1.80;;
11064;SDS011;5585;52.530;7.320;2023-03-15T05:22:14;2.80;;;1.63;;
11064;SDS011;5585;52.530;7.320;2023-03-15T05:24:40;5.73;;;1.93;;
11064;SDS011;5585;52.530;7.320;2023-03-15T05:27:07;2.93;;;1.53;;
11064;SDS011;5585;52.530;7.320;2023-03-15T05:29:36;2.67;;;2.00;;
11064;SDS011;5585;52.530;7.320;2023-03-15T05:32:02;2.87;;;1.73;;
11064;SDS011;5585;52.530;7.320;2023-03-15T05:34:29;3.87;;;2.20;;
11064;SDS011;5585;52.530;7.320;2023-03-15T05:36:57;2.80;;;2.00;;
11064;SDS011;5585;52.530;7.320;2023-03-15T05:39:24;5.37;;;2.13;;
11064;SDS011;5585;52.530;7.320;2023-03-15T05:41:51;5.23;;;2.17;;
11064;SDS011;5585;52.530;7.320;2023-03-15T05:44:17;2.57;;;1.90;;
11064;SDS011;5585;52.530;7.320;2023-03-15T05:46:44;4.77;;;2.00;;
11064;SDS011;5585;52.530;7.320;2023-03-15T05:49:10;3.27;;;2.10;;
11064;SDS011;5585;52.530;7.320;2023-03-15T05:51:37;5.20;;;2.37;;
11064;SDS011;5585;52.530;7.320;2023-03-15T05:54:05;2.63;;;2.00;;
11064;SDS011;5585;52.530;7.320;2023-03-15T05:56:31;2.40;;;1.90;;
11064;SDS011;5585;52.530;7.320;2023-03-15T05:58:58;3.67;;;1.80;;
11064;SDS011;5585;52.530;7.320;2023-03-15T06:01:36;2.87;;;2.10;;
11064;SDS011;5585;52.530;7.320;2023-03-15T06:04:04;3.57;;;2.10;;
11064;SDS011;5585;52.530;7.320;2023-03-15T06:06:31;3.40;;;2.40;;
11064;SDS011;5585;52.530;7.320;2023-03-15T06:08:57;4.40;;;2.27;;
11064;SDS011;5585;52.530;7.320;2023-03-15T06:11:25;5.60;;;2.70;;
11064;SDS011;5585;52.530;7.320;2023-03-15T06:13:52;4.13;;;2.20;;
11064;SDS011;5585;52.530;7.320;2023-03-15T06:16:18;3.17;;;2.10;;
11064;SDS011;5585;52.530;7.320;2023-03-15T06:18:45;10.00;;;2.27;;
11064;SDS011;5585;52.530;7.320;2023-03-15T06:21:11;3.80;;;2.20;;
11064;SDS011;5585;52.530;7.320;2023-03-15T06:23:38;6.90;;;2.60;;
11064;SDS011;5585;52.530;7.320;2023-03-15T06:26:04;8.63;;;3.30;;
11064;SDS011;5585;52.530;7.320;2023-03-15T06:28:32;3.40;;;2.53;;
11064;SDS011;5585;52.530;7.320;2023-03-15T06:31:03;4.67;;;2.27;;
11064;SDS011;5585;52.530;7.320;2023-03-15T06:33:29;4.60;;;1.90;;
11064;SDS011;5585;52.530;7.320;2023-03-15T06:35:56;4.97;;;2.33;;
11064;SDS011;5585;52.530;7.320;2023-03-15T06:38:22;3.43;;;2.00;;
11064;SDS011;5585;52.530;7.320;2023-03-15T06:40:49;5.03;;;1.97;;
11064;SDS011;5585;52.530;7.320;2023-03-15T06:43:15;2.67;;;2.07;;
11064;SDS011;5585;52.530;7.320;2023-03-15T06:45:45;3.13;;;1.93;;
11064;SDS011;5585;52.530;7.320;2023-03-15T06:48:11;2.50;;;1.77;;
11064;SDS011;5585;52.530;7.320;2023-03-15T06:50:38;6.70;;;2.23;;
11064;SDS011;5585;52.530;7.320;2023-03-15T06:53:04;4.17;;;2.10;;
11064;SDS011;5585;52.530;7.320;2023-03-15T06:55:31;3.80;;;1.97;;
11064;SDS011;5585;52.530;7.320;2023-03-15T06:57:58;5.13;;;2.07;;
11064;SDS011;5585;52.530;7.320;2023-03-15T07:00:24;4.83;;;2.30;;
11064;SDS011;5585;52.530;7.320;2023-03-15T07:02:52;5.50;;;2.50;;
11064;SDS011;5585;52.530;7.320;2023-03-15T07:05:19;3.13;;;2.00;;
11064;SDS011;5585;52.530;7.320;2023-03-15T07:07:45;3.87;;;2.20;;
11064;SDS011;5585;52.530;7.320;2023-03-15T07:10:12;6.80;;;2.03;;
11064;SDS011;5585;52.530;7.320;2023-03-15T07:12:39;3.97;;;2.40;;
11064;SDS011;5585;52.530;7.320;2023-03-15T07:15:05;3.73;;;1.73;;
11064;SDS011;5585;52.530;7.320;2023-03-15T07:17:32;3.13;;;1.53;;
11064;SDS011;5585;52.530;7.320;2023-03-15T07:20:00;5.27;;;1.80;;
11064;SDS011;5585;52.530;7.320;2023-03-15T07:22:27;3.77;;;1.67;;
11064;SDS011;5585;52.530;7.320;2023-03-15T07:24:53;6.30;;;2.33;;
11064;SDS011;5585;52.530;7.320;2023-03-15T07:27:20;5.40;;;1.77;;
11064;SDS011;5585;52.530;7.320;2023-03-15T07:29:46;5.20;;;1.90;;
11064;SDS011;5585;52.530;7.320;2023-03-15T07:32:13;2.53;;;1.53;;
11064;SDS011;5585;52.530;7.320;2023-03-15T07:34:40;5.33;;;2.20;;
11064;SDS011;5585;52.530;7.320;2023-03-15T07:37:08;4.07;;;1.70;;
11064;SDS011;5585;52.530;7.320;2023-03-15T07:39:34;3.87;;;1.70;;
11064;SDS011;5585;52.530;7.320;2023-03-15T07:42:01;2.97;;;1.30;;
11064;SDS011;5585;52.530;7.320;2023-03-15T07:44:28;5.93;;;1.77;;
11064;SDS011;5585;52.530;7.320;2023-03-15T07:46:54;3.80;;;1.30;;
11064;SDS011;5585;52.530;7.320;2023-03-15T07:49:21;4.53;;;1.40;;
11064;SDS011;5585;52.530;7.320;2023-03-15T07:51:47;4.37;;;1.83;;
11064;SDS011;5585;52.530;7.320;2023-03-15T07:54:15;3.37;;;1.50;;
11064;SDS011;5585;52.530;7.320;2023-03-15T07:56:43;3.33;;;1.30;;
11064;SDS011;5585;52.530;7.320;2023-03-15T07:59:09;5.87;;;1.90;;
11064;SDS011;5585;52.530;7.320;2023-03-15T08:01:36;2.93;;;1.60;;
11064;SDS011;5585;52.530;7.320;2023-03-15T08:04:03;3.50;;;1.30;;
11064;SDS011;5585;52.530;7.320;2023-03-15T08:06:29;2.33;;;1.33;;
11064;SDS011;5585;52.530;7.320;2023-03-15T08:08:56;7.33;;;1.93;;
11064;SDS011;5585;52.530;7.320;2023-03-15T08:11:27;4.30;;;1.33;;
11064;SDS011;5585;52.530;7.320;2023-03-15T08:13:53;4.30;;;1.60;;
11064;SDS011;5585;52.530;7.320;2023-03-15T08:16:20;3.57;;;1.30;;
11064;SDS011;5585;52.530;7.320;2023-03-15T08:18:47;5.63;;;1.77;;
11064;SDS011;5585;52.530;7.320;2023-03-15T08:21:14;3.33;;;1.40;;
11064;SDS011;5585;52.530;7.320;2023-03-15T08:23:40;5.20;;;1.73;;
11064;SDS011;5585;52.530;7.320;2023-03-15T08:26:07;3.33;;;1.20;;
11064;SDS011;5585;52.530;7.320;2023-03-15T08:28:35;5.07;;;1.70;;
11064;SDS011;5585;52.530;7.320;2023-03-15T08:31:04;5.40;;;1.50;;
11064;SDS011;5585;52.530;7.320;2023-03-15T08:33:31;5.83;;;1.43;;
11064;SDS011;5585;52.530;7.320;2023-03-15T08:35:57;4.27;;;1.13;;
11064;SDS011;5585;52.530;7.320;2023-03-15T08:38:24;5.77;;;1.30;;
11064;SDS011;5585;52.530;7.320;2023-03-15T08:40:54;5.80;;;1.40;;
11064;SDS011;5585;52.530;7.320;2023-03-15T08:43:20;5.67;;;1.43;;
11064;SDS011;5585;52.530;7.320;2023-03-15T08:45:51;5.63;;;1.20;;
11064;SDS011;5585;52.530;7.320;2023-03-15T08:48:18;2.60;;;1.10;;
11064;SDS011;5585;52.530;7.320;2023-03-15T08:50:45;3.93;;;0.80;;
11064;SDS011;5585;52.530;7.320;2023-03-15T08:53:11;3.40;;;1.10;;
11064;SDS011;5585;52.530;7.320;2023-03-15T08:55:38;2.33;;;0.87;;
11064;SDS011;5585;52.530;7.320;2023-03-15T08:58:04;5.10;;;1.13;;
11064;SDS011;5585;52.530;7.320;2023-03-15T09:00:31;6.17;;;1.53;;
11064;SDS011;5585;52.530;7.320;2023-03-15T09:02:59;2.23;;;1.03;;
11064;SDS011;5585;52.530;7.320;2023-03-15T09:05:25;5.70;;;0.97;;
11064;SDS011;5585;52.530;7.320;2023-03-15T09:07:52;5.03;;;1.03;;
11064;SDS011;5585;52.530;7.320;2023-03-15T09:10:19;8.43;;;1.83;;
11064;SDS011;5585;52.530;7.320;2023-03-15T09:12:47;4.53;;;1.00;;
11064;SDS011;5585;52.530;7.320;2023-03-15T09:15:13;4.63;;;1.60;;
11064;SDS011;5585;52.530;7.320;2023-03-15T09:17:41;3.93;;;1.40;;
11064;SDS011;5585;52.530;7.320;2023-03-15T09:20:10;6.40;;;1.10;;
11064;SDS011;5585;52.530;7.320;2023-03-15T09:22:43;3.13;;;0.70;;
11064;SDS011;5585;52.530;7.320;2023-03-15T09:25:14;3.20;;;1.00;;
11064;SDS011;5585;52.530;7.320;2023-03-15T09:27:41;4.33;;;1.10;;
11064;SDS011;5585;52.530;7.320;2023-03-15T09:30:08;4.20;;;0.90;;
11064;SDS011;5585;52.530;7.320;2023-03-15T09:32:35;3.27;;;0.90;;
11064;SDS011;5585;52.530;7.320;2023-03-15T09:35:01;5.40;;;1.10;;
11064;SDS011;5585;52.530;7.320;2023-03-15T09:37:30;3.33;;;1.03;;
11064;SDS011;5585;52.530;7.320;2023-03-15T09:39:56;4.23;;;1.00;;
11064;SDS011;5585;52.530;7.320;2023-03-15T09:42:24;2.40;;;0.80;;
11064;SDS011;5585;52.530;7.320;2023-03-15T09:44:55;5.93;;;1.30;;
11064;SDS011;5585;52.530;7.320;2023-03-15T09:47:29;7.10;;;1.43;;
11064;SDS011;5585;52.530;7.320;2023-03-15T09:49:58;5.53;;;1.10;;
11064;SDS011;5585;52.530;7.320;2023-03-15T09:52:31;4.30;;;1.13;;
11064;SDS011;5585;52.530;7.320;2023-03-15T09:54:59;6.23;;;1.40;;
11064;SDS011;5585;52.530;7.320;2023-03-15T09:57:29;3.83;;;1.10;;
11064;SDS011;5585;52.530;7.320;2023-03-15T10:00:00;5.20;;;1.20;;
11064;SDS011;5585;52.530;7.320;2023-03-15T10:02:29;4.20;;;1.00;;
11064;SDS011;5585;52.530;7.320;2023-03-15T10:04:57;4.03;;;1.00;;
11064;SDS011;5585;52.530;7.320;2023-03-15T10:07:25;5.17;;;0.80;;
11064;SDS011;5585;52.530;7.320;2023-03-15T10:09:53;3.80;;;0.90;;
11064;SDS011;5585;52.530;7.320;2023-03-15T10:12:25;3.27;;;1.20;;
11064;SDS011;5585;52.530;7.320;2023-03-15T10:14:59;2.37;;;0.90;;
11064;SDS011;5585;52.530;7.320;2023-03-15T10:17:31;5.50;;;1.07;;
11064;SDS011;5585;52.530;7.320;2023-03-15T10:20:02;4.23;;;1.10;;
11064;SDS011;5585;52.530;7.320;2023-03-15T10:22:30;3.93;;;1.30;;
11064;SDS011;5585;52.530;7.320;2023-03-15T10:25:02;2.97;;;0.90;;
11064;SDS011;5585;52.530;7.320;2023-03-15T10:27:30;2.70;;;0.93;;
11064;SDS011;5585;52.530;7.320;2023-03-15T10:29:59;3.33;;;0.93;;
11064;SDS011;5585;52.530;7.320;2023-03-15T10:32:26;3.33;;;1.20;;
11064;SDS011;5585;52.530;7.320;2023-03-15T10:34:55;3.43;;;1.00;;
11064;SDS011;5585;52.530;7.320;2023-03-15T10:37:22;5.97;;;1.00;;
11064;SDS011;5585;52.530;7.320;2023-03-15T10:39:52;3.83;;;1.00;;
11064;SDS011;5585;52.530;7.320;2023-03-15T10:42:28;3.77;;;1.60;;
11064;SDS011;5585;52.530;7.320;2023-03-15T10:44:54;3.83;;;1.33;;
11064;SDS011;5585;52.530;7.320;2023-03-15T10:47:21;5.87;;;1.07;;
11064;SDS011;5585;52.530;7.320;2023-03-15T10:49:49;3.67;;;0.93;;
11064;SDS011;5585;52.530;7.320;2023-03-15T10:52:26;1.87;;;0.80;;
11064;SDS011;5585;52.530;7.320;2023-03-15T10:54:52;3.43;;;0.93;;
11064;SDS011;5585;52.530;7.320;2023-03-15T10:57:19;5.37;;;1.40;;
11064;SDS011;5585;52.530;7.320;2023-03-15T10:59:55;4.40;;;1.20;;
11064;SDS011;5585;52.530;7.320;2023-03-15T11:02:23;4.10;;;0.80;;
11064;SDS011;5585;52.530;7.320;2023-03-15T11:04:58;3.20;;;1.10;;
11064;SDS011;5585;52.530;7.320;2023-03-15T11:07:25;4.70;;;1.00;;
11064;SDS011;5585;52.530;7.320;2023-03-15T11:09:52;4.57;;;1.10;;
11064;SDS011;5585;52.530;7.320;2023-03-15T11:12:22;4.10;;;1.50;;
11064;SDS011;5585;52.530;7.320;2023-03-15T11:14:50;4.60;;;1.47;;
11064;SDS011;5585;52.530;7.320;2023-03-15T11:17:19;3.07;;;1.07;;
11064;SDS011;5585;52.530;7.320;2023-03-15T11:19:48;3.47;;;1.00;;
11064;SDS011;5585;52.530;7.320;2023-03-15T11:22:16;3.70;;;1.07;;
11064;SDS011;5585;52.530;7.320;2023-03-15T11:24:43;5.10;;;1.20;;
11064;SDS011;5585;52.530;7.320;2023-03-15T11:27:11;1.70;;;0.43;;
11064;SDS011;5585;52.530;7.320;2023-03-15T11:29:39;2.73;;;1.00;;
11064;SDS011;5585;52.530;7.320;2023-03-15T11:32:10;2.60;;;0.97;;
11064;SDS011;5585;52.530;7.320;2023-03-15T11:34:39;4.53;;;1.00;;
11064;SDS011;5585;52.530;7.320;2023-03-15T11:37:11;2.93;;;0.83;;
11064;SDS011;5585;52.530;7.320;2023-03-15T11:39:39;1.97;;;0.80;;
11064;SDS011;5585;52.530;7.320;2023-03-15T11:42:09;4.60;;;0.97;;
11064;SDS011;5585;52.530;7.320;2023-03-15T11:44:39;2.77;;;1.00;;
11064;SDS011;5585;52.530;7.320;2023-03-15T11:47:09;3.53;;;1.13;;
11064;SDS011;5585;52.530;7.320;2023-03-15T11:49:41;2.50;;;1.10;;
11064;SDS011;5585;52.530;7.320;2023-03-15T11:52:10;1.03;;;0.60;;
11064;SDS011;5585;52.530;7.320;2023-03-15T11:54:36;3.10;;;1.00;;
11064;SDS011;5585;52.530;7.320;2023-03-15T11:57:04;2.93;;;0.93;;
11064;SDS011;5585;52.530;7.320;2023-03-15T11:59:32;1.53;;;0.57;;
11064;SDS011;5585;52.530;7.320;2023-03-15T12:02:00;1.97;;;0.70;;
11064;SDS011;5585;52.530;7.320;2023-03-15T12:04:43;4.27;;;0.60;;
11064;SDS011;5585;52.530;7.320;2023-03-15T12:07:23;1.93;;;0.73;;
11064;SDS011;5585;52.530;7.320;2023-03-15T12:09:53;2.50;;;0.80;;
11064;SDS011;5585;52.530;7.320;2023-03-15T12:12:33;2.80;;;0.90;;
11064;SDS011;5585;52.530;7.320;2023-03-15T12:15:00;1.60;;;0.73;;
11064;SDS011;5585;52.530;7.320;2023-03-15T12:17:37;3.50;;;0.90;;
11064;SDS011;5585;52.530;7.320;2023-03-15T12:20:11;0.93;;;0.60;;
11064;SDS011;5585;52.530;7.320;2023-03-15T12:22:39;5.03;;;0.80;;
11064;SDS011;5585;52.530;7.320;2023-03-15T12:25:07;2.13;;;0.67;;
11064;SDS011;5585;52.530;7.320;2023-03-15T12:27:37;1.77;;;0.70;;
11064;SDS011;5585;52.530;7.320;2023-03-15T12:30:06;2.23;;;0.60;;
11064;SDS011;5585;52.530;7.320;2023-03-15T12:32:35;1.57;;;0.50;;
11064;SDS011;5585;52.530;7.320;2023-03-15T12:35:12;1.40;;;0.63;;
11064;SDS011;5585;52.530;7.320;2023-03-15T12:37:42;2.77;;;0.77;;
11064;SDS011;5585;52.530;7.320;2023-03-15T12:43:00;1.20;;;0.70;;
11064;SDS011;5585;52.530;7.320;2023-03-15T12:45:30;3.10;;;0.93;;
11064;SDS011;5585;52.530;7.320;2023-03-15T12:50:49;1.70;;;0.67;;
11064;SDS011;5585;52.530;7.320;2023-03-15T12:53:18;3.73;;;0.80;;
11064;SDS011;5585;52.530;7.320;2023-03-15T12:55:46;2.20;;;0.70;;
11064;SDS011;5585;52.530;7.320;2023-03-15T12:58:16;2.20;;;0.70;;
11064;SDS011;5585;52.530;7.320;2023-03-15T13:00:46;4.27;;;0.80;;
11064;SDS011;5585;52.530;7.320;2023-03-15T13:03:14;2.50;;;0.70;;
11064;SDS011;5585;52.530;7.320;2023-03-15T13:05:46;4.07;;;0.90;;
11064;SDS011;5585;52.530;7.320;2023-03-15T13:08:18;1.57;;;0.50;;
11064;SDS011;5585;52.530;7.320;2023-03-15T13:13:30;2.97;;;0.67;;
11064;SDS011;5585;52.530;7.320;2023-03-15T13:16:08;2.13;;;0.67;;
11064;SDS011;5585;52.530;7.320;2023-03-15T13:18:40;3.47;;;0.97;;
11064;SDS011;5585;52.530;7.320;2023-03-15T13:21:11;2.70;;;1.00;;
11064;SDS011;5585;52.530;7.320;2023-03-15T13:23:54;1.30;;;0.50;;
11064;SDS011;5585;52.530;7.320;2023-03-15T13:26:24;2.17;;;0.80;;
11064;SDS011;5585;52.530;7.320;2023-03-15T13:28:55;2.00;;;0.80;;
11064;SDS011;5585;52.530;7.320;2023-03-15T13:31:24;2.47;;;0.60;;
11064;SDS011;5585;52.530;7.320;2023-03-15T13:33:52;2.53;;;0.80;;
11064;SDS011;5585;52.530;7.320;2023-03-15T13:36:21;1.37;;;0.60;;
11064;SDS011;5585;52.530;7.320;2023-03-15T13:38:51;1.03;;;0.67;;
11064;SDS011;5585;52.530;7.320;2023-03-15T13:41:19;3.33;;;0.90;;
11064;SDS011;5585;52.530;7.320;2023-03-15T13:43:46;1.77;;;0.70;;
11064;SDS011;5585;52.530;7.320;2023-03-15T13:46:14;1.90;;;0.80;;
11064;SDS011;5585;52.530;7.320;2023-03-15T13:48:41;2.73;;;0.70;;
11064;SDS011;5585;52.530;7.320;2023-03-15T13:51:11;3.33;;;1.40;;
11064;SDS011;5585;52.530;7.320;2023-03-15T13:53:42;3.13;;;1.50;;
11064;SDS011;5585;52.530;7.320;2023-03-15T13:56:13;2.23;;;0.90;;
11064;SDS011;5585;52.530;7.320;2023-03-15T13:58:41;2.57;;;0.80;;
11064;SDS011;5585;52.530;7.320;2023-03-15T14:01:08;2.17;;;0.70;;
11064;SDS011;5585;52.530;7.320;2023-03-15T14:03:36;2.03;;;0.60;;
11064;SDS011;5585;52.530;7.320;2023-03-15T14:06:05;1.17;;;0.50;;
11064;SDS011;5585;52.530;7.320;2023-03-15T14:08:32;0.73;;;0.40;;
11064;SDS011;5585;52.530;7.320;2023-03-15T14:11:02;1.20;;;0.57;;
11064;SDS011;5585;52.530;7.320;2023-03-15T14:13:31;2.38;;;0.60;;
11064;SDS011;5585;52.530;7.320;2023-03-15T14:15:59;1.75;;;0.50;;
11064;SDS011;5585;52.530;7.320;2023-03-15T14:18:29;2.08;;;0.70;;
11064;SDS011;5585;52.530;7.320;2023-03-15T14:20:57;3.70;;;0.55;;
11064;SDS011;5585;52.530;7.320;2023-03-15T14:23:26;2.30;;;0.57;;
11064;SDS011;5585;52.530;7.320;2023-03-15T14:25:53;3.92;;;0.70;;
11064;SDS011;5585;52.530;7.320;2023-03-15T14:28:20;2.05;;;0.90;;
11064;SDS011;5585;52.530;7.320;2023-03-15T14:30:53;1.27;;;0.55;;
11064;SDS011;5585;52.530;7.320;2023-03-15T14:33:26;4.10;;;0.68;;
11064;SDS011;5585;52.530;7.320;2023-03-15T14:35:56;3.00;;;0.80;;
11064;SDS011;5585;52.530;7.320;2023-03-15T14:38:25;1.95;;;0.43;;
11064;SDS011;5585;52.530;7.320;2023-03-15T14:40:52;3.08;;;0.80;;
11064;SDS011;5585;52.530;7.320;2023-03-15T14:43:19;3.67;;;0.60;;
11064;SDS011;5585;52.530;7.320;2023-03-15T14:45:46;2.30;;;0.55;;
11064;SDS011;5585;52.530;7.320;2023-03-15T14:48:14;3.38;;;0.80;;
11064;SDS011;5585;52.530;7.320;2023-03-15T14:50:42;4.70;;;0.93;;
11064;SDS011;5585;52.530;7.320;2023-03-15T14:53:12;2.95;;;0.70;;
11064;SDS011;5585;52.530;7.320;2023-03-15T14:55:39;1.48;;;0.70;;
11064;SDS011;5585;52.530;7.320;2023-03-15T14:58:08;3.63;;;0.68;;
11064;SDS011;5585;52.530;7.320;2023-03-15T15:00:36;1.00;;;0.57;;
11064;SDS011;5585;52.530;7.320;2023-03-15T15:03:03;1.75;;;0.60;;
11064;SDS011;5585;52.530;7.320;2023-03-15T15:05:35;1.52;;;0.52;;
11064;SDS011;5585;52.530;7.320;2023-03-15T15:08:08;2.80;;;1.05;;
11064;SDS011;5585;52.530;7.320;2023-03-15T15:10:37;1.80;;;1.10;;
11064;SDS011;5585;52.530;7.320;2023-03-15T15:13:04;2.20;;;0.77;;